createdAt,value
2019-02-05T00:00:04.559Z,-0.50
2019-02-05T00:02:35.147Z,-0.50
2019-02-05T00:05:06.361Z,-0.50
2019-02-05T00:07:36.813Z,-0.50
2019-02-05T00:10:07.268Z,-0.50
2019-02-05T00:12:37.631Z,-0.50
2019-02-05T00:15:08.538Z,-0.50
2019-02-05T00:17:39.289Z,-0.50
2019-02-05T00:20:10.243Z,-0.50
2019-02-05T00:22:40.820Z,-0.50
2019-02-05T00:25:11.271Z,-0.50
2019-02-05T00:27:41.739Z,-0.50
2019-02-05T00:30:12.105Z,-0.60
2019-02-05T00:32:42.822Z,-0.60
2019-02-05T00:35:13.429Z,-0.60
2019-02-05T00:37:44.056Z,-0.60
2019-02-05T00:40:14.443Z,-0.60
2019-02-05T00:42:45.065Z,-0.70
2019-02-05T00:45:15.895Z,-0.70
2019-02-05T00:47:46.460Z,-0.70
2019-02-05T00:50:17.298Z,-0.70
2019-02-05T00:52:47.272Z,-0.80
2019-02-05T00:55:17.599Z,-0.80
2019-02-05T00:57:48.076Z,-0.90
2019-02-05T01:00:25.241Z,-1.00
2019-02-05T01:02:55.509Z,-1.00
2019-02-05T01:05:26.107Z,-1.00
2019-02-05T01:07:56.810Z,-1.00
2019-02-05T01:10:27.987Z,-1.00
2019-02-05T01:12:58.510Z,-1.00
2019-02-05T01:15:28.845Z,-1.00
2019-02-05T01:18:18.167Z,-1.00
2019-02-05T01:20:48.089Z,-1.00
2019-02-05T01:23:18.459Z,-1.00
2019-02-05T01:25:48.985Z,-1.00
2019-02-05T01:28:19.683Z,-1.00
2019-02-05T01:30:49.855Z,-0.90
2019-02-05T01:33:20.499Z,-0.90
2019-02-05T01:35:51.478Z,-1.00
2019-02-05T01:38:22.068Z,-1.00
2019-02-05T01:40:51.921Z,-1.00
2019-02-05T01:43:22.555Z,-1.10
2019-02-05T01:45:53.207Z,-1.10
2019-02-05T01:48:23.669Z,-1.10
2019-02-05T01:50:53.899Z,-1.10
2019-02-05T01:53:24.198Z,-1.10
2019-02-05T01:55:54.457Z,-1.10
2019-02-05T01:58:24.687Z,-1.20
2019-02-05T02:00:55.266Z,-1.20
2019-02-05T02:03:25.935Z,-1.20
2019-02-05T02:05:56.426Z,-1.20
2019-02-05T02:08:26.959Z,-1.20
2019-02-05T02:10:57.599Z,-1.20
2019-02-05T02:13:28.146Z,-1.10
2019-02-05T02:15:58.406Z,-1.20
2019-02-05T02:18:28.995Z,-1.10
2019-02-05T02:20:59.309Z,-1.20
2019-02-05T02:23:29.791Z,-1.20
2019-02-05T02:26:00.289Z,-1.20
2019-02-05T02:28:30.499Z,-1.20
2019-02-05T02:31:01.563Z,-1.20
2019-02-05T02:33:32.219Z,-1.20
2019-02-05T02:36:02.663Z,-1.20
2019-02-05T02:38:33.041Z,-1.20
2019-02-05T02:41:03.681Z,-1.20
2019-02-05T02:43:33.999Z,-1.20
2019-02-05T02:46:04.210Z,-1.30
2019-02-05T02:48:34.605Z,-1.40
2019-02-05T02:51:05.141Z,-1.40
2019-02-05T02:53:35.509Z,-1.40
2019-02-05T02:56:06.367Z,-1.40
2019-02-05T02:58:36.729Z,-1.40
2019-02-05T03:01:07.254Z,-1.50
2019-02-05T03:03:37.842Z,-1.50
2019-02-05T03:06:27.103Z,-1.50
2019-02-05T03:08:58.191Z,-1.60
2019-02-05T03:11:28.710Z,-1.60
2019-02-05T03:13:58.941Z,-1.70
2019-02-05T03:16:29.461Z,-1.70
2019-02-05T03:19:00.020Z,-1.80
2019-02-05T03:21:30.662Z,-1.80
2019-02-05T03:24:00.927Z,-1.90
2019-02-05T03:26:31.268Z,-1.90
2019-02-05T03:29:01.943Z,-1.90
2019-02-05T03:31:32.625Z,-1.80
2019-02-05T03:34:03.201Z,-1.80
2019-02-05T03:36:52.520Z,-1.80
2019-02-05T03:39:22.800Z,-1.90
2019-02-05T03:41:53.482Z,-2.00
2019-02-05T03:44:23.969Z,-2.00
2019-02-05T03:46:54.552Z,-2.10
2019-02-05T03:49:25.130Z,-2.20
2019-02-05T03:52:11.564Z,-2.20
2019-02-05T03:55:05.444Z,-2.30
2019-02-05T03:57:51.805Z,-2.40
2019-02-05T04:00:56.139Z,-2.60
2019-02-05T04:03:48.367Z,-2.80
2019-02-05T04:06:58.803Z,-2.90
2019-02-05T04:10:24.793Z,-2.90
2019-02-05T04:13:31.359Z,-2.70
2019-02-05T04:16:42.911Z,-2.70
2019-02-05T04:20:12.188Z,-2.60
2019-02-05T04:23:37.157Z,-2.60
2019-02-05T04:26:38.977Z,-2.70
2019-02-05T04:29:33.271Z,-2.70
2019-02-05T04:32:32.581Z,-2.60
2019-02-05T04:35:28.571Z,-2.60
2019-02-05T04:38:33.844Z,-2.50
2019-02-05T04:41:21.431Z,-2.50
2019-02-05T04:44:16.202Z,-2.50
2019-02-05T04:47:10.993Z,-2.50
2019-02-05T04:50:08.281Z,-2.50
2019-02-05T04:53:37.169Z,-2.60
2019-02-05T04:56:32.406Z,-2.60
2019-02-05T04:59:51.839Z,-2.60
2019-02-05T05:03:11.077Z,-2.60
2019-02-05T05:06:10.026Z,-2.80
2019-02-05T05:09:05.353Z,-3.10
2019-02-05T05:11:35.787Z,-3.20
2019-02-05T05:14:06.439Z,-3.30
2019-02-05T05:16:36.969Z,-3.30
2019-02-05T05:19:07.486Z,-3.30
2019-02-05T05:21:38.261Z,-3.20
2019-02-05T05:24:08.785Z,-3.10
2019-02-05T05:26:39.558Z,-3.00
2019-02-05T05:29:10.161Z,-3.00
2019-02-05T05:31:40.855Z,-3.10
2019-02-05T05:34:11.647Z,-3.00
2019-02-05T05:36:50.007Z,-3.00
2019-02-05T05:39:21.056Z,-3.00
2019-02-05T05:41:51.630Z,-3.00
2019-02-05T05:44:22.305Z,-3.00
2019-02-05T05:46:53.047Z,-3.10
2019-02-05T05:49:23.930Z,-3.10
2019-02-05T05:51:54.475Z,-3.10
2019-02-05T05:54:25.065Z,-3.20
2019-02-05T05:56:55.380Z,-3.10
2019-02-05T05:59:26.018Z,-3.00
2019-02-05T06:01:56.347Z,-2.90
2019-02-05T06:04:26.657Z,-2.80
2019-02-05T06:06:57.329Z,-2.60
2019-02-05T06:09:27.895Z,-2.60
2019-02-05T06:12:00.939Z,-2.50
2019-02-05T06:14:31.469Z,-2.50
2019-02-05T06:17:02.097Z,-2.50
2019-02-05T06:19:32.587Z,-2.40
2019-02-05T06:22:03.159Z,-2.40
2019-02-05T06:24:33.739Z,-2.30
2019-02-05T06:27:19.589Z,-2.30
2019-02-05T06:29:50.147Z,-2.30
2019-02-05T06:32:20.120Z,-2.30
2019-02-05T06:34:50.609Z,-2.30
2019-02-05T06:37:20.980Z,-2.20
2019-02-05T06:39:56.926Z,-2.20
2019-02-05T06:42:27.269Z,-2.20
2019-02-05T06:44:57.567Z,-2.20
2019-02-05T06:47:46.957Z,-2.20
2019-02-05T06:50:17.392Z,-2.10
2019-02-05T06:52:47.702Z,-2.20
2019-02-05T06:55:18.291Z,-2.10
2019-02-05T06:57:48.895Z,-2.10
2019-02-05T07:00:25.168Z,-2.10
2019-02-05T07:02:55.869Z,-2.10
2019-02-05T07:05:26.141Z,-2.00
2019-02-05T07:07:56.735Z,-2.00
2019-02-05T07:10:27.454Z,-2.00
2019-02-05T07:12:59.291Z,-2.00
2019-02-05T07:15:29.918Z,-2.00
2019-02-05T07:18:00.537Z,-2.00
2019-02-05T07:20:30.528Z,-2.00
2019-02-05T07:23:00.982Z,-2.00
2019-02-05T07:25:31.166Z,-2.00
2019-02-05T07:28:01.861Z,-2.10
2019-02-05T07:30:32.535Z,-2.10
2019-02-05T07:33:03.019Z,-2.20
2019-02-05T07:35:33.716Z,-2.20
2019-02-05T07:38:07.496Z,-2.20
2019-02-05T07:40:38.157Z,-2.20
2019-02-05T07:43:08.442Z,-2.20
2019-02-05T07:45:39.055Z,-2.10
2019-02-05T07:48:09.440Z,-2.10
2019-02-05T07:50:39.729Z,-2.00
2019-02-05T07:53:10.176Z,-2.00
2019-02-05T07:55:40.541Z,-2.00
2019-02-05T07:58:11.260Z,-2.00
2019-02-05T08:00:41.542Z,-2.00
2019-02-05T08:03:12.211Z,-2.00
2019-02-05T08:05:42.647Z,-1.90
2019-02-05T08:08:13.405Z,-1.90
2019-02-05T08:10:43.798Z,-1.80
2019-02-05T08:13:14.403Z,-1.80
2019-02-05T08:15:45.073Z,-1.70
2019-02-05T08:18:15.759Z,-1.70
2019-02-05T08:20:46.269Z,-1.70
2019-02-05T08:23:16.641Z,-1.60
2019-02-05T08:25:47.382Z,-1.60
2019-02-05T08:28:17.629Z,-1.60
2019-02-05T08:30:49.518Z,-1.60
2019-02-05T08:33:20.156Z,-1.50
2019-02-05T08:35:50.794Z,-1.50
2019-02-05T08:38:21.368Z,-1.50
2019-02-05T08:40:51.685Z,-1.50
2019-02-05T08:43:22.368Z,-1.50
2019-02-05T08:45:56.814Z,-1.50
2019-02-05T08:48:25.280Z,-1.50
2019-02-05T08:50:55.553Z,-1.50
2019-02-05T08:53:25.759Z,-1.50
2019-02-05T08:55:56.170Z,-1.50
2019-02-05T08:58:31.110Z,-1.40
2019-02-05T09:00:59.036Z,-1.40
2019-02-05T09:03:29.411Z,-1.30
2019-02-05T09:05:59.971Z,-1.30
2019-02-05T09:08:30.502Z,-1.30
2019-02-05T09:11:19.912Z,-1.20
2019-02-05T09:13:51.872Z,-1.20
2019-02-05T09:16:22.521Z,-1.10
2019-02-05T09:18:52.827Z,-1.00
2019-02-05T09:21:23.044Z,-1.00
2019-02-05T09:23:53.494Z,-0.90
2019-02-05T09:26:24.155Z,-0.90
2019-02-05T09:28:54.447Z,-0.90
2019-02-05T09:31:25.030Z,-0.90
2019-02-05T09:33:55.659Z,-0.80
2019-02-05T09:36:26.190Z,-0.80
2019-02-05T09:38:56.729Z,-0.70
2019-02-05T09:41:27.328Z,-0.70
2019-02-05T09:43:57.744Z,-0.70
2019-02-05T09:46:28.274Z,-0.60
2019-02-05T09:48:58.656Z,-0.60
2019-02-05T09:51:28.906Z,-0.60
2019-02-05T09:53:59.520Z,-0.50
2019-02-05T09:56:30.324Z,-0.50
2019-02-05T09:59:00.906Z,-0.50
2019-02-05T10:01:31.262Z,-0.50
2019-02-05T10:04:01.917Z,-0.50
2019-02-05T10:06:32.225Z,-0.50
2019-02-05T10:09:02.142Z,-0.40
2019-02-05T10:11:32.176Z,-0.40
2019-02-05T10:14:02.087Z,-0.30
2019-02-05T10:16:32.676Z,-0.40
2019-02-05T10:19:03.368Z,-0.40
2019-02-05T10:21:34.126Z,-0.50
2019-02-05T10:24:05.087Z,-0.50
2019-02-05T10:26:35.454Z,-0.50
2019-02-05T10:29:05.880Z,-0.50
2019-02-05T10:31:35.887Z,-0.40
2019-02-05T10:34:06.260Z,-0.40
2019-02-05T10:36:36.300Z,-0.30
2019-02-05T10:39:09.742Z,-0.30
2019-02-05T10:41:40.485Z,-0.20
2019-02-05T10:44:11.254Z,-0.20
2019-02-05T10:46:41.656Z,-0.10
2019-02-05T10:49:12.410Z,-0.10
2019-02-05T10:51:42.821Z,0.00
2019-02-05T10:54:13.392Z,0.00
2019-02-05T10:56:43.932Z,0.10
2019-02-05T10:59:14.524Z,0.10
2019-02-05T11:01:44.752Z,0.20
2019-02-05T11:04:15.350Z,0.20
2019-02-05T11:06:45.408Z,0.30
2019-02-05T11:09:15.689Z,0.30
2019-02-05T11:11:46.382Z,0.50
2019-02-05T11:14:17.096Z,0.50
2019-02-05T11:16:47.699Z,0.50
2019-02-05T11:19:18.536Z,0.50
2019-02-05T11:21:48.484Z,0.60
2019-02-05T11:24:18.825Z,0.60
2019-02-05T11:26:49.159Z,0.60
2019-02-05T11:29:19.888Z,0.60
2019-02-05T11:31:49.378Z,0.60
2019-02-05T11:34:19.823Z,0.60
2019-02-05T11:36:50.156Z,0.60
2019-02-05T11:39:20.432Z,0.60
2019-02-05T11:41:50.798Z,0.60
2019-02-05T11:44:21.405Z,0.60
2019-02-05T11:46:52.076Z,0.70
2019-02-05T11:49:22.656Z,0.70
2019-02-05T11:51:53.025Z,0.80
2019-02-05T11:54:23.603Z,0.90
2019-02-05T11:56:53.844Z,0.90
2019-02-05T11:59:24.550Z,1.00
2019-02-05T12:01:55.092Z,1.10
2019-02-05T12:04:25.448Z,1.10
2019-02-05T12:06:56.118Z,1.20
2019-02-05T12:09:26.940Z,1.30
2019-02-05T12:11:57.561Z,1.40
2019-02-05T12:14:27.602Z,1.50
2019-02-05T12:16:58.180Z,1.60
2019-02-05T12:19:28.580Z,1.60
2019-02-05T12:21:59.162Z,1.60
2019-02-05T12:24:29.425Z,1.60
2019-02-05T12:26:59.998Z,1.70
2019-02-05T12:29:29.950Z,1.60
2019-02-05T12:32:00.665Z,1.60
2019-02-05T12:34:31.250Z,1.60
2019-02-05T12:37:01.602Z,1.60
2019-02-05T12:39:32.248Z,1.60
2019-02-05T12:42:02.394Z,1.60
2019-02-05T12:44:32.732Z,1.60
2019-02-05T12:47:02.584Z,1.60
2019-02-05T12:49:32.872Z,1.60
2019-02-05T12:52:03.458Z,1.50
2019-02-05T12:54:34.033Z,1.50
2019-02-05T12:57:05.942Z,1.50
2019-02-05T12:59:36.276Z,1.40
2019-02-05T13:02:06.567Z,1.40
2019-02-05T13:04:37.106Z,1.40
2019-02-05T13:07:08.406Z,1.30
2019-02-05T13:09:38.597Z,1.30
2019-02-05T13:12:08.779Z,1.30
2019-02-05T13:14:38.775Z,1.30
2019-02-05T13:17:08.902Z,1.20
2019-02-05T13:19:39.106Z,1.20
2019-02-05T13:22:09.360Z,1.20
2019-02-05T13:24:39.894Z,1.20
2019-02-05T13:27:10.492Z,1.20
2019-02-05T13:29:40.700Z,1.20
2019-02-05T13:32:11.236Z,1.20
2019-02-05T13:34:41.832Z,1.20
2019-02-05T13:37:12.207Z,1.20
2019-02-05T13:39:42.963Z,1.10
2019-02-05T13:42:12.440Z,1.10
2019-02-05T13:44:43.607Z,1.10
2019-02-05T13:47:13.786Z,1.10
2019-02-05T13:49:43.726Z,1.00
2019-02-05T13:52:14.370Z,1.00
2019-02-05T13:54:44.847Z,1.10
2019-02-05T13:57:15.438Z,1.00
2019-02-05T13:59:45.870Z,1.00
2019-02-05T14:02:16.613Z,1.00
2019-02-05T14:04:47.343Z,1.00
2019-02-05T14:07:36.706Z,1.00
2019-02-05T14:10:10.720Z,0.90
2019-02-05T14:12:41.356Z,0.90
2019-02-05T14:15:12.604Z,0.90
2019-02-05T14:17:42.406Z,0.80
2019-02-05T14:20:13.574Z,0.70
2019-02-05T14:22:44.399Z,0.70
2019-02-05T14:25:14.960Z,0.70
2019-02-05T14:27:44.858Z,0.60
2019-02-05T14:30:35.512Z,0.50
2019-02-05T14:33:06.116Z,0.50
2019-02-05T14:35:36.500Z,0.50
2019-02-05T14:38:08.162Z,0.40
2019-02-05T14:40:38.524Z,0.40
2019-02-05T14:43:09.429Z,0.40
2019-02-05T14:45:40.639Z,0.30
2019-02-05T14:48:11.216Z,0.30
2019-02-05T14:50:42.209Z,0.30
2019-02-05T14:53:13.121Z,0.20
2019-02-05T14:55:43.752Z,0.30
2019-02-05T14:58:15.514Z,0.20
2019-02-05T15:00:46.055Z,0.20
2019-02-05T15:03:17.259Z,0.20
2019-02-05T15:05:48.557Z,0.20
2019-02-05T15:08:20.083Z,0.10
2019-02-05T15:10:50.626Z,0.10
2019-02-05T15:13:20.947Z,0.10
2019-02-05T15:15:51.163Z,0.10
2019-02-05T15:18:23.145Z,0.00
2019-02-05T15:20:53.217Z,0.00
2019-02-05T15:23:23.465Z,-0.10
2019-02-05T15:25:54.334Z,-0.10
2019-02-05T15:28:24.322Z,-0.10
2019-02-05T15:30:54.818Z,-0.10
2019-02-05T15:33:42.884Z,-0.20
2019-02-05T15:36:19.046Z,-0.20
2019-02-05T15:38:48.965Z,-0.30
2019-02-05T15:41:18.780Z,-0.30
2019-02-05T15:43:48.276Z,-0.30
2019-02-05T15:46:19.212Z,-0.30
2019-02-05T15:48:50.189Z,-0.40
2019-02-05T15:51:20.756Z,-0.40
2019-02-05T15:53:51.527Z,-0.50
2019-02-05T15:56:21.880Z,-0.50
2019-02-05T15:58:52.462Z,-0.40
2019-02-05T16:01:22.557Z,-0.50
2019-02-05T16:03:53.217Z,-0.50
2019-02-05T16:06:23.850Z,-0.60
2019-02-05T16:08:54.113Z,-0.60
2019-02-05T16:11:23.941Z,-0.60
2019-02-05T16:13:54.476Z,-0.60
2019-02-05T16:16:25.537Z,-0.70
2019-02-05T16:18:55.758Z,-0.70
2019-02-05T16:21:26.464Z,-0.70
2019-02-05T16:23:58.287Z,-0.80
2019-02-05T16:26:28.706Z,-0.80
2019-02-05T16:28:58.878Z,-0.90
2019-02-05T16:31:29.214Z,-1.00
2019-02-05T16:33:59.714Z,-1.00
2019-02-05T16:36:30.182Z,-1.00
2019-02-05T16:39:19.534Z,-1.10
2019-02-05T16:41:49.949Z,-1.10
2019-02-05T16:44:20.187Z,-1.10
2019-02-05T16:46:50.666Z,-1.10
2019-02-05T16:49:22.401Z,-1.20
2019-02-05T16:51:52.877Z,-1.20
2019-02-05T16:54:23.134Z,-1.20
2019-02-05T16:56:53.840Z,-1.20
2019-02-05T16:59:24.188Z,-1.20
2019-02-05T17:01:57.050Z,-1.20
2019-02-05T17:04:27.223Z,-1.20
2019-02-05T17:06:57.878Z,-1.30
2019-02-05T17:09:28.431Z,-1.30
2019-02-05T17:11:58.744Z,-1.30
2019-02-05T17:14:28.762Z,-1.30
2019-02-05T17:16:59.312Z,-1.30
2019-02-05T17:19:31.805Z,-1.30
2019-02-05T17:22:01.755Z,-1.30
2019-02-05T17:24:31.571Z,-1.30
2019-02-05T17:27:02.238Z,-1.40
2019-02-05T17:29:31.894Z,-1.50
2019-02-05T17:32:02.675Z,-1.50
2019-02-05T17:34:32.151Z,-1.60
2019-02-05T17:37:02.606Z,-1.50
2019-02-05T17:39:33.230Z,-1.60
2019-02-05T17:42:03.046Z,-1.60
2019-02-05T17:44:33.497Z,-1.60
2019-02-05T17:47:04.155Z,-1.60
2019-02-05T17:49:34.727Z,-1.60
2019-02-05T17:52:05.046Z,-1.50
2019-02-05T17:54:35.814Z,-1.50
2019-02-05T17:57:06.738Z,-1.50
2019-02-05T17:59:37.320Z,-1.50
2019-02-05T18:02:07.795Z,-1.50
2019-02-05T18:04:38.418Z,-1.50
2019-02-05T18:07:09.068Z,-1.50
2019-02-05T18:09:39.312Z,-1.50
2019-02-05T18:12:09.890Z,-1.50
2019-02-05T18:14:58.810Z,-1.50
2019-02-05T18:17:29.356Z,-1.40
2019-02-05T18:20:18.378Z,-1.40
2019-02-05T18:22:48.898Z,-1.40
2019-02-05T18:25:19.866Z,-1.40
2019-02-05T18:27:50.159Z,-1.40
2019-02-05T18:30:26.113Z,-1.50
2019-02-05T18:33:04.727Z,-1.50
2019-02-05T18:35:28.783Z,-1.50
2019-02-05T18:37:59.555Z,-1.50
2019-02-05T18:40:30.350Z,-1.50
2019-02-05T18:43:00.302Z,-1.50
2019-02-05T18:45:30.441Z,-1.50
2019-02-05T18:48:01.075Z,-1.40
2019-02-05T18:50:32.176Z,-1.40
2019-02-05T18:53:02.471Z,-1.40
2019-02-05T18:55:34.524Z,-1.50
2019-02-05T18:58:09.334Z,-1.50
2019-02-05T19:00:40.571Z,-1.50
2019-02-05T19:03:15.460Z,-1.60
2019-02-05T19:05:43.418Z,-1.70
2019-02-05T19:08:16.217Z,-1.70
2019-02-05T19:10:46.052Z,-1.70
2019-02-05T19:13:16.500Z,-1.60
2019-02-05T19:15:47.510Z,-1.60
2019-02-05T19:18:18.398Z,-1.60
2019-02-05T19:20:49.007Z,-1.60
2019-02-05T19:23:19.980Z,-1.60
2019-02-05T19:25:59.247Z,-1.50
2019-02-05T19:28:34.496Z,-1.50
2019-02-05T19:31:11.066Z,-1.50
2019-02-05T19:33:42.431Z,-1.50
2019-02-05T19:36:12.918Z,-1.50
2019-02-05T19:38:43.638Z,-1.50
2019-02-05T19:41:14.006Z,-1.50
2019-02-05T19:43:45.067Z,-1.60
2019-02-05T19:46:33.455Z,-1.60
2019-02-05T19:49:21.527Z,-1.60
2019-02-05T19:51:44.028Z,-1.60
2019-02-05T19:54:15.744Z,-1.50
2019-02-05T19:56:47.577Z,-1.60
2019-02-05T19:59:18.551Z,-1.60
2019-02-05T20:01:49.324Z,-1.70
2019-02-05T20:04:20.226Z,-1.70
2019-02-05T20:06:51.769Z,-1.70
2019-02-05T20:09:22.545Z,-1.70
2019-02-05T20:11:53.266Z,-1.70
2019-02-05T20:14:24.365Z,-1.70
2019-02-05T20:16:55.047Z,-1.60
2019-02-05T20:19:26.111Z,-1.70
2019-02-05T20:21:56.556Z,-1.60
2019-02-05T20:24:26.839Z,-1.70
2019-02-05T20:26:57.573Z,-1.70
2019-02-05T20:29:27.756Z,-1.70
2019-02-05T20:31:58.553Z,-1.60
2019-02-05T20:34:29.544Z,-1.60
2019-02-05T20:36:59.712Z,-1.60
2019-02-05T20:39:30.338Z,-1.70
2019-02-05T20:42:01.108Z,-1.70
2019-02-05T20:44:31.522Z,-1.70
2019-02-05T20:47:01.806Z,-1.70
2019-02-05T20:49:32.770Z,-1.70
2019-02-05T20:52:21.868Z,-1.70
2019-02-05T20:54:52.354Z,-1.70
2019-02-05T20:57:22.618Z,-1.70
2019-02-05T20:59:53.046Z,-1.70
2019-02-05T21:02:22.866Z,-1.70
2019-02-05T21:04:53.598Z,-1.70
2019-02-05T21:07:23.982Z,-1.70
2019-02-05T21:09:54.163Z,-1.70
2019-02-05T21:12:24.814Z,-1.70
2019-02-05T21:14:55.723Z,-1.80
2019-02-05T21:17:26.127Z,-1.80
2019-02-05T21:19:56.756Z,-1.80
2019-02-05T21:22:26.997Z,-1.80
2019-02-05T21:24:57.567Z,-1.80
2019-02-05T21:27:28.007Z,-1.80
2019-02-05T21:29:58.454Z,-1.80
2019-02-05T21:32:28.842Z,-1.80
2019-02-05T21:34:59.325Z,-1.80
2019-02-05T21:37:29.501Z,-1.80
2019-02-05T21:40:02.569Z,-1.80
2019-02-05T21:42:51.424Z,-1.80
2019-02-05T21:45:22.424Z,-1.80
2019-02-05T21:47:52.709Z,-1.80
2019-02-05T21:50:23.476Z,-1.80
2019-02-05T21:52:54.074Z,-1.80
2019-02-05T21:55:24.028Z,-1.80
2019-02-05T21:57:54.623Z,-1.90
2019-02-05T22:00:30.066Z,-1.90
2019-02-05T22:03:00.735Z,-1.90
2019-02-05T22:05:31.311Z,-1.90
2019-02-05T22:08:01.843Z,-1.90
2019-02-05T22:10:32.068Z,-1.90
2019-02-05T22:13:02.816Z,-1.90
2019-02-05T22:15:33.807Z,-1.90
2019-02-05T22:18:04.507Z,-2.00
2019-02-05T22:20:35.115Z,-2.00
2019-02-05T22:23:05.736Z,-2.00
2019-02-05T22:25:36.518Z,-2.00
2019-02-05T22:28:06.624Z,-2.00
2019-02-05T22:30:36.931Z,-2.00
2019-02-05T22:33:07.769Z,-2.00
2019-02-05T22:35:37.977Z,-1.90
2019-02-05T22:38:08.205Z,-1.90
2019-02-05T22:40:38.549Z,-1.90
2019-02-05T22:43:27.871Z,-1.90
2019-02-05T22:45:58.135Z,-1.90
2019-02-05T22:48:28.796Z,-1.90
2019-02-05T22:50:59.028Z,-1.90
2019-02-05T22:53:30.109Z,-1.90
2019-02-05T22:56:19.118Z,-2.00
2019-02-05T22:58:49.762Z,-2.00
2019-02-05T23:01:48.833Z,-2.10
2019-02-05T23:04:55.088Z,-2.10
2019-02-05T23:07:27.047Z,-2.10
2019-02-05T23:10:18.602Z,-2.10
2019-02-05T23:12:56.476Z,-2.10
2019-02-05T23:15:29.108Z,-2.10
2019-02-05T23:17:59.299Z,-2.10
2019-02-05T23:20:30.282Z,-2.20
2019-02-05T23:23:01.234Z,-2.20
2019-02-05T23:25:31.771Z,-2.20
2019-02-05T23:28:01.695Z,-2.20
2019-02-05T23:30:32.286Z,-2.20
2019-02-05T23:33:02.535Z,-2.20
2019-02-05T23:35:33.403Z,-2.20
2019-02-05T23:38:03.879Z,-2.20
2019-02-05T23:40:34.121Z,-2.10
2019-02-05T23:43:04.506Z,-2.10
2019-02-05T23:45:34.760Z,-2.10
2019-02-05T23:48:05.442Z,-2.10
2019-02-05T23:50:35.758Z,-2.10
2019-02-05T23:53:06.737Z,-2.20
2019-02-05T23:55:37.277Z,-2.20
2019-02-05T23:58:07.575Z,-2.20
